sensor_id;sensor_type;location;lat;lon;timestamp;P1;durP1;ratioP1;P2;durP2;ratioP2
1569;SDS011;778;50.120;8.698;2023-06-14T00:00:06;6.67;;;6.07;;
1569;SDS011;778;50.120;8.698;2023-06-14T00:02:35;6.43;;;5.83;;
1569;SDS011;778;50.120;8.698;2023-06-14T00:05:04;6.77;;;6.17;;
1569;SDS011;778;50.120;8.698;2023-06-14T00:07:35;7.23;;;6.60;;
1569;SDS011;778;50.120;8.698;2023-06-14T00:10:09;6.90;;;6.20;;
1569;SDS011;778;50.120;8.698;2023-06-14T00:12:38;7.53;;;6.93;;
1569;SDS011;778;50.120;8.698;2023-06-14T00:15:07;6.30;;;5.80;;
1569;SDS011;778;50.120;8.698;2023-06-14T00:17:37;6.33;;;5.83;;
1569;SDS011;778;50.120;8.698;2023-06-14T00:20:06;6.83;;;6.10;;
1569;SDS011;778;50.120;8.698;2023-06-14T00:22:37;10.30;;;6.60;;
1569;SDS011;778;50.120;8.698;2023-06-14T00:25:06;8.67;;;6.50;;
1569;SDS011;778;50.120;8.698;2023-06-14T00:27:53;9.27;;;6.97;;
1569;SDS011;778;50.120;8.698;2023-06-14T00:30:22;8.57;;;5.13;;
1569;SDS011;778;50.120;8.698;2023-06-14T00:32:51;7.33;;;6.20;;
1569;SDS011;778;50.120;8.698;2023-06-14T00:35:20;6.70;;;6.10;;
1569;SDS011;778;50.120;8.698;2023-06-14T00:37:50;6.70;;;6.10;;
1569;SDS011;778;50.120;8.698;2023-06-14T00:40:18;7.40;;;5.87;;
1569;SDS011;778;50.120;8.698;2023-06-14T00:42:47;7.73;;;5.67;;
1569;SDS011;778;50.120;8.698;2023-06-14T00:45:15;6.37;;;5.87;;
1569;SDS011;778;50.120;8.698;2023-06-14T00:47:44;8.70;;;6.33;;
1569;SDS011;778;50.120;8.698;2023-06-14T00:50:15;8.27;;;5.90;;
1569;SDS011;778;50.120;8.698;2023-06-14T00:52:44;6.93;;;5.10;;
1569;SDS011;778;50.120;8.698;2023-06-14T00:55:13;6.23;;;5.50;;
1569;SDS011;778;50.120;8.698;2023-06-14T00:57:42;6.97;;;6.37;;
1569;SDS011;778;50.120;8.698;2023-06-14T01:00:12;6.50;;;5.90;;
1569;SDS011;778;50.120;8.698;2023-06-14T01:02:42;6.33;;;5.80;;
1569;SDS011;778;50.120;8.698;2023-06-14T01:05:11;5.70;;;5.20;;
1569;SDS011;778;50.120;8.698;2023-06-14T01:07:43;10.37;;;6.43;;
1569;SDS011;778;50.120;8.698;2023-06-14T01:10:29;5.80;;;5.30;;
1569;SDS011;778;50.120;8.698;2023-06-14T01:13:07;7.87;;;5.83;;
1569;SDS011;778;50.120;8.698;2023-06-14T01:15:42;5.67;;;5.17;;
1569;SDS011;778;50.120;8.698;2023-06-14T01:18:12;6.67;;;5.10;;
1569;SDS011;778;50.120;8.698;2023-06-14T01:20:44;7.60;;;5.80;;
1569;SDS011;778;50.120;8.698;2023-06-14T01:23:17;9.90;;;6.50;;
1569;SDS011;778;50.120;8.698;2023-06-14T01:25:47;6.83;;;6.20;;
1569;SDS011;778;50.120;8.698;2023-06-14T01:28:20;6.33;;;5.73;;
1569;SDS011;778;50.120;8.698;2023-06-14T01:30:50;6.47;;;5.87;;
1569;SDS011;778;50.120;8.698;2023-06-14T01:33:22;10.63;;;6.27;;
1569;SDS011;778;50.120;8.698;2023-06-14T01:35:57;6.43;;;5.93;;
1569;SDS011;778;50.120;8.698;2023-06-14T01:38:30;6.07;;;5.13;;
1569;SDS011;778;50.120;8.698;2023-06-14T01:40:59;6.90;;;6.27;;
1569;SDS011;778;50.120;8.698;2023-06-14T01:43:29;6.40;;;5.40;;
1569;SDS011;778;50.120;8.698;2023-06-14T01:45:58;6.70;;;6.20;;
1569;SDS011;778;50.120;8.698;2023-06-14T01:48:28;6.13;;;5.57;;
1569;SDS011;778;50.120;8.698;2023-06-14T01:50:56;6.00;;;5.27;;
1569;SDS011;778;50.120;8.698;2023-06-14T01:53:25;6.43;;;5.20;;
1569;SDS011;778;50.120;8.698;2023-06-14T01:55:55;6.77;;;5.37;;
1569;SDS011;778;50.120;8.698;2023-06-14T01:58:24;7.33;;;5.80;;
1569;SDS011;778;50.120;8.698;2023-06-14T02:00:52;5.97;;;5.20;;
1569;SDS011;778;50.120;8.698;2023-06-14T02:03:23;9.13;;;5.60;;
1569;SDS011;778;50.120;8.698;2023-06-14T02:05:51;6.73;;;6.13;;
1569;SDS011;778;50.120;8.698;2023-06-14T02:08:21;4.90;;;4.50;;
1569;SDS011;778;50.120;8.698;2023-06-14T02:10:50;5.90;;;5.40;;
1569;SDS011;778;50.120;8.698;2023-06-14T02:13:22;6.43;;;5.53;;
1569;SDS011;778;50.120;8.698;2023-06-14T02:15:50;8.87;;;5.70;;
1569;SDS011;778;50.120;8.698;2023-06-14T02:18:21;5.53;;;5.00;;
1569;SDS011;778;50.120;8.698;2023-06-14T02:20:50;5.73;;;5.10;;
1569;SDS011;778;50.120;8.698;2023-06-14T02:23:19;8.83;;;6.73;;
1569;SDS011;778;50.120;8.698;2023-06-14T02:25:47;6.27;;;5.60;;
1569;SDS011;778;50.120;8.698;2023-06-14T02:28:16;5.83;;;5.10;;
1569;SDS011;778;50.120;8.698;2023-06-14T02:30:46;8.63;;;6.07;;
1569;SDS011;778;50.120;8.698;2023-06-14T02:33:14;5.10;;;4.60;;
1569;SDS011;778;50.120;8.698;2023-06-14T02:35:44;6.00;;;5.60;;
1569;SDS011;778;50.120;8.698;2023-06-14T02:38:13;7.63;;;5.70;;
1569;SDS011;778;50.120;8.698;2023-06-14T02:40:41;5.70;;;5.20;;
1569;SDS011;778;50.120;8.698;2023-06-14T02:43:10;5.73;;;5.23;;
1569;SDS011;778;50.120;8.698;2023-06-14T02:45:38;10.47;;;5.93;;
1569;SDS011;778;50.120;8.698;2023-06-14T02:48:08;5.83;;;5.20;;
1569;SDS011;778;50.120;8.698;2023-06-14T02:50:39;9.30;;;5.67;;
1569;SDS011;778;50.120;8.698;2023-06-14T02:53:08;6.77;;;4.97;;
1569;SDS011;778;50.120;8.698;2023-06-14T02:55:37;7.57;;;4.87;;
1569;SDS011;778;50.120;8.698;2023-06-14T02:58:07;6.87;;;6.20;;
1569;SDS011;778;50.120;8.698;2023-06-14T03:00:36;9.30;;;5.20;;
1569;SDS011;778;50.120;8.698;2023-06-14T03:03:05;11.37;;;5.60;;
1569;SDS011;778;50.120;8.698;2023-06-14T03:05:43;6.13;;;5.53;;
1569;SDS011;778;50.120;8.698;2023-06-14T03:08:15;9.80;;;5.70;;
1569;SDS011;778;50.120;8.698;2023-06-14T03:10:48;6.30;;;5.70;;
1569;SDS011;778;50.120;8.698;2023-06-14T03:13:17;5.30;;;4.80;;
1569;SDS011;778;50.120;8.698;2023-06-14T03:15:48;8.47;;;5.53;;
1569;SDS011;778;50.120;8.698;2023-06-14T03:18:19;7.07;;;5.30;;
1569;SDS011;778;50.120;8.698;2023-06-14T03:20:55;6.07;;;5.40;;
1569;SDS011;778;50.120;8.698;2023-06-14T03:23:26;7.17;;;5.13;;
1569;SDS011;778;50.120;8.698;2023-06-14T03:25:54;9.57;;;4.70;;
1569;SDS011;778;50.120;8.698;2023-06-14T03:28:23;5.77;;;5.27;;
1569;SDS011;778;50.120;8.698;2023-06-14T03:30:53;5.57;;;5.07;;
1569;SDS011;778;50.120;8.698;2023-06-14T03:33:23;5.80;;;4.93;;
1569;SDS011;778;50.120;8.698;2023-06-14T03:35:55;7.03;;;6.33;;
1569;SDS011;778;50.120;8.698;2023-06-14T03:38:24;7.73;;;5.73;;
1569;SDS011;778;50.120;8.698;2023-06-14T03:40:52;6.43;;;4.73;;
1569;SDS011;778;50.120;8.698;2023-06-14T03:43:21;5.90;;;5.40;;
1569;SDS011;778;50.120;8.698;2023-06-14T03:45:49;9.53;;;5.80;;
1569;SDS011;778;50.120;8.698;2023-06-14T03:48:19;7.87;;;5.40;;
1569;SDS011;778;50.120;8.698;2023-06-14T03:50:47;6.77;;;5.83;;
1569;SDS011;778;50.120;8.698;2023-06-14T03:53:18;6.77;;;5.30;;
1569;SDS011;778;50.120;8.698;2023-06-14T03:55:48;8.90;;;5.00;;
1569;SDS011;778;50.120;8.698;2023-06-14T03:58:28;5.77;;;5.17;;
1569;SDS011;778;50.120;8.698;2023-06-14T04:00:56;7.13;;;5.20;;
1569;SDS011;778;50.120;8.698;2023-06-14T04:03:25;11.03;;;5.10;;
1569;SDS011;778;50.120;8.698;2023-06-14T04:05:57;7.13;;;5.40;;
1569;SDS011;778;50.120;8.698;2023-06-14T04:08:28;5.70;;;5.20;;
1569;SDS011;778;50.120;8.698;2023-06-14T04:10:57;5.70;;;5.13;;
1569;SDS011;778;50.120;8.698;2023-06-14T04:13:26;7.43;;;5.53;;
1569;SDS011;778;50.120;8.698;2023-06-14T04:15:54;5.27;;;4.77;;
1569;SDS011;778;50.120;8.698;2023-06-14T04:18:28;5.43;;;4.97;;
1569;SDS011;778;50.120;8.698;2023-06-14T04:20:57;6.47;;;5.33;;
1569;SDS011;778;50.120;8.698;2023-06-14T04:23:26;6.17;;;4.90;;
1569;SDS011;778;50.120;8.698;2023-06-14T04:25:56;6.13;;;5.43;;
1569;SDS011;778;50.120;8.698;2023-06-14T04:28:28;7.03;;;5.30;;
1569;SDS011;778;50.120;8.698;2023-06-14T04:30:59;7.87;;;5.47;;
1569;SDS011;778;50.120;8.698;2023-06-14T04:33:30;5.27;;;4.70;;
1569;SDS011;778;50.120;8.698;2023-06-14T04:35:59;6.10;;;5.07;;
1569;SDS011;778;50.120;8.698;2023-06-14T04:38:29;6.83;;;4.70;;
1569;SDS011;778;50.120;8.698;2023-06-14T04:41:01;4.97;;;4.33;;
1569;SDS011;778;50.120;8.698;2023-06-14T04:43:31;12.50;;;5.87;;
1569;SDS011;778;50.120;8.698;2023-06-14T04:46:05;6.93;;;5.57;;
1569;SDS011;778;50.120;8.698;2023-06-14T04:48:39;7.30;;;5.33;;
1569;SDS011;778;50.120;8.698;2023-06-14T04:51:09;9.10;;;5.20;;
1569;SDS011;778;50.120;8.698;2023-06-14T04:53:41;7.83;;;5.27;;
1569;SDS011;778;50.120;8.698;2023-06-14T04:56:10;5.73;;;5.07;;
1569;SDS011;778;50.120;8.698;2023-06-14T04:58:39;10.50;;;5.67;;
1569;SDS011;778;50.120;8.698;2023-06-14T05:01:08;7.27;;;4.90;;
1569;SDS011;778;50.120;8.698;2023-06-14T05:03:37;9.23;;;4.77;;
1569;SDS011;778;50.120;8.698;2023-06-14T05:06:06;6.27;;;5.60;;
1569;SDS011;778;50.120;8.698;2023-06-14T05:08:34;9.70;;;5.30;;
1569;SDS011;778;50.120;8.698;2023-06-14T05:11:04;6.03;;;4.80;;
1569;SDS011;778;50.120;8.698;2023-06-14T05:13:33;5.20;;;4.80;;
1569;SDS011;778;50.120;8.698;2023-06-14T05:16:02;6.60;;;5.47;;
1569;SDS011;778;50.120;8.698;2023-06-14T05:18:31;6.37;;;5.13;;
1569;SDS011;778;50.120;8.698;2023-06-14T05:21:00;5.00;;;4.60;;
1569;SDS011;778;50.120;8.698;2023-06-14T05:23:30;5.27;;;4.87;;
1569;SDS011;778;50.120;8.698;2023-06-14T05:25:58;5.97;;;5.47;;
1569;SDS011;778;50.120;8.698;2023-06-14T05:28:30;17.23;;;5.30;;
1569;SDS011;778;50.120;8.698;2023-06-14T05:30:59;7.03;;;5.50;;
1569;SDS011;778;50.120;8.698;2023-06-14T05:33:27;6.20;;;5.40;;
1569;SDS011;778;50.120;8.698;2023-06-14T05:35:56;11.50;;;6.30;;
1569;SDS011;778;50.120;8.698;2023-06-14T05:38:24;9.90;;;6.47;;
1569;SDS011;778;50.120;8.698;2023-06-14T05:40:53;5.90;;;4.80;;
1569;SDS011;778;50.120;8.698;2023-06-14T05:43:21;5.47;;;4.90;;
1569;SDS011;778;50.120;8.698;2023-06-14T05:45:51;8.90;;;4.73;;
1569;SDS011;778;50.120;8.698;2023-06-14T05:48:20;9.93;;;6.33;;
1569;SDS011;778;50.120;8.698;2023-06-14T05:50:48;6.03;;;5.43;;
1569;SDS011;778;50.120;8.698;2023-06-14T05:53:16;9.47;;;5.60;;
1569;SDS011;778;50.120;8.698;2023-06-14T05:55:45;8.13;;;5.93;;
1569;SDS011;778;50.120;8.698;2023-06-14T05:58:13;6.87;;;5.63;;
1569;SDS011;778;50.120;8.698;2023-06-14T06:00:42;8.43;;;5.30;;
1569;SDS011;778;50.120;8.698;2023-06-14T06:03:12;9.10;;;5.40;;
1569;SDS011;778;50.120;8.698;2023-06-14T06:05:40;10.40;;;5.53;;
1569;SDS011;778;50.120;8.698;2023-06-14T06:08:09;6.37;;;5.07;;
1569;SDS011;778;50.120;8.698;2023-06-14T06:10:37;7.40;;;5.00;;
1569;SDS011;778;50.120;8.698;2023-06-14T06:13:06;7.70;;;5.40;;
1569;SDS011;778;50.120;8.698;2023-06-14T06:15:37;6.10;;;5.23;;
1569;SDS011;778;50.120;8.698;2023-06-14T06:18:05;5.80;;;5.30;;
1569;SDS011;778;50.120;8.698;2023-06-14T06:20:35;6.50;;;5.93;;
1569;SDS011;778;50.120;8.698;2023-06-14T06:23:04;5.73;;;4.67;;
1569;SDS011;778;50.120;8.698;2023-06-14T06:25:32;6.30;;;5.70;;
1569;SDS011;778;50.120;8.698;2023-06-14T06:28:00;6.10;;;5.20;;
1569;SDS011;778;50.120;8.698;2023-06-14T06:30:29;7.03;;;5.00;;
1569;SDS011;778;50.120;8.698;2023-06-14T06:32:57;5.47;;;4.70;;
1569;SDS011;778;50.120;8.698;2023-06-14T06:35:26;5.33;;;4.83;;
1569;SDS011;778;50.120;8.698;2023-06-14T06:37:56;5.40;;;4.90;;
1569;SDS011;778;50.120;8.698;2023-06-14T06:40:25;8.67;;;5.30;;
1569;SDS011;778;50.120;8.698;2023-06-14T06:42:53;7.37;;;4.90;;
1569;SDS011;778;50.120;8.698;2023-06-14T06:45:25;8.03;;;5.80;;
1569;SDS011;778;50.120;8.698;2023-06-14T06:47:54;5.23;;;4.73;;
1569;SDS011;778;50.120;8.698;2023-06-14T06:50:23;5.47;;;4.90;;
1569;SDS011;778;50.120;8.698;2023-06-14T06:52:51;6.07;;;4.83;;
1569;SDS011;778;50.120;8.698;2023-06-14T06:55:21;7.03;;;4.80;;
1569;SDS011;778;50.120;8.698;2023-06-14T06:57:50;7.37;;;4.77;;
1569;SDS011;778;50.120;8.698;2023-06-14T07:00:20;4.83;;;4.43;;
1569;SDS011;778;50.120;8.698;2023-06-14T07:02:51;5.63;;;4.00;;
1569;SDS011;778;50.120;8.698;2023-06-14T07:05:21;3.93;;;3.63;;
1569;SDS011;778;50.120;8.698;2023-06-14T07:07:50;4.30;;;4.00;;
1569;SDS011;778;50.120;8.698;2023-06-14T07:10:21;7.27;;;3.70;;
1569;SDS011;778;50.120;8.698;2023-06-14T07:12:50;3.83;;;3.00;;
1569;SDS011;778;50.120;8.698;2023-06-14T07:15:19;3.87;;;3.07;;
1569;SDS011;778;50.120;8.698;2023-06-14T07:17:47;3.40;;;2.83;;
1569;SDS011;778;50.120;8.698;2023-06-14T07:20:17;3.47;;;3.17;;
1569;SDS011;778;50.120;8.698;2023-06-14T07:22:45;9.20;;;3.40;;
1569;SDS011;778;50.120;8.698;2023-06-14T07:25:14;4.80;;;3.03;;
1569;SDS011;778;50.120;8.698;2023-06-14T07:27:46;4.33;;;2.93;;
1569;SDS011;778;50.120;8.698;2023-06-14T07:30:14;6.23;;;2.80;;
1569;SDS011;778;50.120;8.698;2023-06-14T07:32:43;3.70;;;2.80;;
1569;SDS011;778;50.120;8.698;2023-06-14T07:35:11;3.40;;;2.70;;
1569;SDS011;778;50.120;8.698;2023-06-14T07:37:40;6.37;;;2.60;;
1569;SDS011;778;50.120;8.698;2023-06-14T07:40:09;7.03;;;3.00;;
1569;SDS011;778;50.120;8.698;2023-06-14T07:42:39;4.07;;;2.67;;
1569;SDS011;778;50.120;8.698;2023-06-14T07:45:09;2.87;;;2.67;;
1569;SDS011;778;50.120;8.698;2023-06-14T07:47:41;3.53;;;2.70;;
1569;SDS011;778;50.120;8.698;2023-06-14T07:50:10;3.47;;;2.63;;
1569;SDS011;778;50.120;8.698;2023-06-14T07:52:39;4.63;;;3.07;;
1569;SDS011;778;50.120;8.698;2023-06-14T07:55:07;5.20;;;2.90;;
1569;SDS011;778;50.120;8.698;2023-06-14T07:57:37;3.40;;;3.10;;
1569;SDS011;778;50.120;8.698;2023-06-14T08:00:06;3.63;;;3.30;;
1569;SDS011;778;50.120;8.698;2023-06-14T08:02:41;3.30;;;3.00;;
1569;SDS011;778;50.120;8.698;2023-06-14T08:05:10;3.70;;;3.30;;
1569;SDS011;778;50.120;8.698;2023-06-14T08:07:39;3.30;;;2.60;;
1569;SDS011;778;50.120;8.698;2023-06-14T08:10:09;3.20;;;2.87;;
1569;SDS011;778;50.120;8.698;2023-06-14T08:12:37;3.20;;;2.57;;
1569;SDS011;778;50.120;8.698;2023-06-14T08:15:06;4.43;;;3.17;;
1569;SDS011;778;50.120;8.698;2023-06-14T08:17:41;7.50;;;3.43;;
1569;SDS011;778;50.120;8.698;2023-06-14T08:20:10;9.20;;;3.40;;
1569;SDS011;778;50.120;8.698;2023-06-14T08:22:42;4.67;;;3.17;;
1569;SDS011;778;50.120;8.698;2023-06-14T08:25:12;2.80;;;2.60;;
1569;SDS011;778;50.120;8.698;2023-06-14T08:27:42;2.63;;;2.30;;
1569;SDS011;778;50.120;8.698;2023-06-14T08:30:13;5.53;;;3.00;;
1569;SDS011;778;50.120;8.698;2023-06-14T08:32:43;3.27;;;2.13;;
1569;SDS011;778;50.120;8.698;2023-06-14T08:35:17;2.10;;;2.00;;
1569;SDS011;778;50.120;8.698;2023-06-14T08:37:46;2.63;;;1.77;;
1569;SDS011;778;50.120;8.698;2023-06-14T08:40:18;4.70;;;2.80;;
1569;SDS011;778;50.120;8.698;2023-06-14T08:42:50;2.47;;;2.00;;
1569;SDS011;778;50.120;8.698;2023-06-14T08:45:23;4.40;;;2.07;;
1569;SDS011;778;50.120;8.698;2023-06-14T08:47:55;3.73;;;2.37;;
1569;SDS011;778;50.120;8.698;2023-06-14T08:50:26;3.87;;;2.00;;
1569;SDS011;778;50.120;8.698;2023-06-14T08:52:58;2.53;;;2.33;;
1569;SDS011;778;50.120;8.698;2023-06-14T08:55:30;3.30;;;2.20;;
1569;SDS011;778;50.120;8.698;2023-06-14T08:58:03;2.60;;;2.00;;
1569;SDS011;778;50.120;8.698;2023-06-14T09:00:34;2.53;;;2.10;;
1569;SDS011;778;50.120;8.698;2023-06-14T09:03:05;4.03;;;2.20;;
1569;SDS011;778;50.120;8.698;2023-06-14T09:05:40;3.70;;;2.43;;
1569;SDS011;778;50.120;8.698;2023-06-14T09:08:08;2.33;;;2.13;;
1569;SDS011;778;50.120;8.698;2023-06-14T09:10:37;2.27;;;2.00;;
1569;SDS011;778;50.120;8.698;2023-06-14T09:13:08;3.80;;;2.20;;
1569;SDS011;778;50.120;8.698;2023-06-14T09:15:38;4.53;;;2.10;;
1569;SDS011;778;50.120;8.698;2023-06-14T09:18:06;2.70;;;2.00;;
1569;SDS011;778;50.120;8.698;2023-06-14T09:20:35;2.60;;;2.40;;
1569;SDS011;778;50.120;8.698;2023-06-14T09:23:04;4.23;;;2.33;;
1569;SDS011;778;50.120;8.698;2023-06-14T09:25:38;6.17;;;3.20;;
1569;SDS011;778;50.120;8.698;2023-06-14T09:28:11;7.50;;;2.30;;
1569;SDS011;778;50.120;8.698;2023-06-14T09:30:41;2.70;;;2.50;;
1569;SDS011;778;50.120;8.698;2023-06-14T09:33:10;5.07;;;3.73;;
1569;SDS011;778;50.120;8.698;2023-06-14T09:35:45;2.80;;;2.60;;
1569;SDS011;778;50.120;8.698;2023-06-14T09:38:13;2.77;;;2.57;;
1569;SDS011;778;50.120;8.698;2023-06-14T09:40:42;4.70;;;2.37;;
1569;SDS011;778;50.120;8.698;2023-06-14T09:43:10;3.80;;;2.87;;
1569;SDS011;778;50.120;8.698;2023-06-14T09:45:39;5.43;;;2.67;;
1569;SDS011;778;50.120;8.698;2023-06-14T09:48:09;6.80;;;6.10;;
1569;SDS011;778;50.120;8.698;2023-06-14T09:50:37;3.50;;;2.60;;
1569;SDS011;778;50.120;8.698;2023-06-14T09:53:11;5.57;;;2.30;;
1569;SDS011;778;50.120;8.698;2023-06-14T09:55:40;3.63;;;2.50;;
1569;SDS011;778;50.120;8.698;2023-06-14T09:58:10;5.50;;;2.53;;
1569;SDS011;778;50.120;8.698;2023-06-14T10:00:39;2.40;;;2.20;;
1569;SDS011;778;50.120;8.698;2023-06-14T10:03:12;2.37;;;2.20;;
1569;SDS011;778;50.120;8.698;2023-06-14T10:05:43;5.87;;;2.37;;
1569;SDS011;778;50.120;8.698;2023-06-14T10:08:15;2.40;;;2.20;;
1569;SDS011;778;50.120;8.698;2023-06-14T10:10:47;4.03;;;2.60;;
1569;SDS011;778;50.120;8.698;2023-06-14T10:13:15;2.37;;;2.00;;
1569;SDS011;778;50.120;8.698;2023-06-14T10:15:51;2.60;;;2.40;;
1569;SDS011;778;50.120;8.698;2023-06-14T10:18:30;3.03;;;2.83;;
1569;SDS011;778;50.120;8.698;2023-06-14T10:21:13;6.53;;;3.00;;
1569;SDS011;778;50.120;8.698;2023-06-14T10:23:49;2.83;;;2.60;;
1569;SDS011;778;50.120;8.698;2023-06-14T10:26:19;2.57;;;2.37;;
1569;SDS011;778;50.120;8.698;2023-06-14T10:28:56;3.33;;;3.07;;
1569;SDS011;778;50.120;8.698;2023-06-14T10:34:25;2.93;;;2.63;;
1569;SDS011;778;50.120;8.698;2023-06-14T10:37:02;4.43;;;2.60;;
1569;SDS011;778;50.120;8.698;2023-06-14T10:39:37;5.40;;;2.90;;
1569;SDS011;778;50.120;8.698;2023-06-14T10:42:08;3.90;;;3.10;;
1569;SDS011;778;50.120;8.698;2023-06-14T10:44:41;3.10;;;2.90;;
1569;SDS011;778;50.120;8.698;2023-06-14T10:47:26;4.37;;;3.10;;
1569;SDS011;778;50.120;8.698;2023-06-14T10:49:57;2.93;;;2.73;;
1569;SDS011;778;50.120;8.698;2023-06-14T10:52:34;3.07;;;2.60;;
1569;SDS011;778;50.120;8.698;2023-06-14T10:55:10;3.50;;;2.70;;
1569;SDS011;778;50.120;8.698;2023-06-14T10:57:43;5.13;;;3.30;;
1569;SDS011;778;50.120;8.698;2023-06-14T11:00:18;3.93;;;3.07;;
1569;SDS011;778;50.120;8.698;2023-06-14T11:02:55;3.03;;;2.73;;
1569;SDS011;778;50.120;8.698;2023-06-14T11:06:21;5.70;;;2.90;;
1569;SDS011;778;50.120;8.698;2023-06-14T11:12:08;4.80;;;2.43;;
1569;SDS011;778;50.120;8.698;2023-06-14T11:14:38;3.03;;;2.83;;
1569;SDS011;778;50.120;8.698;2023-06-14T11:17:07;3.50;;;2.30;;
1569;SDS011;778;50.120;8.698;2023-06-14T11:19:35;3.13;;;2.43;;
1569;SDS011;778;50.120;8.698;2023-06-14T11:22:05;2.87;;;2.63;;
1569;SDS011;778;50.120;8.698;2023-06-14T11:24:34;1.97;;;1.87;;
1569;SDS011;778;50.120;8.698;2023-06-14T11:27:03;2.47;;;2.27;;
1569;SDS011;778;50.120;8.698;2023-06-14T11:29:32;2.53;;;2.33;;
1569;SDS011;778;50.120;8.698;2023-06-14T11:32:01;2.17;;;2.00;;
1569;SDS011;778;50.120;8.698;2023-06-14T11:34:30;2.73;;;2.00;;
1569;SDS011;778;50.120;8.698;2023-06-14T11:36:58;8.03;;;2.30;;
1569;SDS011;778;50.120;8.698;2023-06-14T11:39:29;2.97;;;2.77;;
1569;SDS011;778;50.120;8.698;2023-06-14T11:41:57;3.03;;;2.17;;
1569;SDS011;778;50.120;8.698;2023-06-14T11:44:28;2.63;;;2.43;;
1569;SDS011;778;50.120;8.698;2023-06-14T11:46:56;4.13;;;2.30;;
1569;SDS011;778;50.120;8.698;2023-06-14T11:49:25;3.07;;;2.87;;
1569;SDS011;778;50.120;8.698;2023-06-14T11:51:54;4.37;;;2.73;;
1569;SDS011;778;50.120;8.698;2023-06-14T11:54:22;6.43;;;3.00;;
1569;SDS011;778;50.120;8.698;2023-06-14T11:56:52;4.60;;;2.93;;
1569;SDS011;778;50.120;8.698;2023-06-14T11:59:21;3.80;;;3.00;;
1569;SDS011;778;50.120;8.698;2023-06-14T12:01:52;5.40;;;2.33;;
1569;SDS011;778;50.120;8.698;2023-06-14T12:04:26;3.40;;;3.20;;
1569;SDS011;778;50.120;8.698;2023-06-14T12:06:55;3.13;;;2.87;;
1569;SDS011;778;50.120;8.698;2023-06-14T12:09:24;3.57;;;3.37;;
1569;SDS011;778;50.120;8.698;2023-06-14T12:12:00;3.03;;;2.83;;
1569;SDS011;778;50.120;8.698;2023-06-14T12:14:30;4.10;;;2.70;;
1569;SDS011;778;50.120;8.698;2023-06-14T12:17:03;4.20;;;3.37;;
1569;SDS011;778;50.120;8.698;2023-06-14T12:19:40;3.47;;;3.17;;
1569;SDS011;778;50.120;8.698;2023-06-14T12:22:10;3.43;;;3.13;;
1569;SDS011;778;50.120;8.698;2023-06-14T12:24:39;3.53;;;3.23;;
1569;SDS011;778;50.120;8.698;2023-06-14T12:27:12;4.40;;;3.50;;
1569;SDS011;778;50.120;8.698;2023-06-14T12:29:42;4.30;;;3.20;;
1569;SDS011;778;50.120;8.698;2023-06-14T12:32:11;3.43;;;3.17;;
1569;SDS011;778;50.120;8.698;2023-06-14T12:34:40;4.77;;;3.40;;
1569;SDS011;778;50.120;8.698;2023-06-14T12:37:08;5.37;;;4.17;;
1569;SDS011;778;50.120;8.698;2023-06-14T12:39:37;3.77;;;3.40;;
1569;SDS011;778;50.120;8.698;2023-06-14T12:42:06;3.73;;;3.33;;
1569;SDS011;778;50.120;8.698;2023-06-14T12:44:37;3.93;;;3.37;;
1569;SDS011;778;50.120;8.698;2023-06-14T12:47:07;3.40;;;3.10;;
1569;SDS011;778;50.120;8.698;2023-06-14T12:49:35;5.50;;;3.10;;
1569;SDS011;778;50.120;8.698;2023-06-14T12:52:04;2.93;;;2.73;;
1569;SDS011;778;50.120;8.698;2023-06-14T12:54:33;3.10;;;2.90;;
1569;SDS011;778;50.120;8.698;2023-06-14T12:57:07;4.60;;;3.10;;
1569;SDS011;778;50.120;8.698;2023-06-14T12:59:37;7.20;;;2.97;;
1569;SDS011;778;50.120;8.698;2023-06-14T13:02:13;3.87;;;3.57;;
1569;SDS011;778;50.120;8.698;2023-06-14T13:04:43;3.50;;;3.17;;
1569;SDS011;778;50.120;8.698;2023-06-14T13:07:11;3.70;;;3.40;;
1569;SDS011;778;50.120;8.698;2023-06-14T13:09:41;3.63;;;3.33;;
1569;SDS011;778;50.120;8.698;2023-06-14T13:12:10;3.50;;;3.30;;
1569;SDS011;778;50.120;8.698;2023-06-14T13:14:40;3.53;;;2.90;;
1569;SDS011;778;50.120;8.698;2023-06-14T13:17:09;4.17;;;3.77;;
1569;SDS011;778;50.120;8.698;2023-06-14T13:19:39;8.37;;;3.50;;
1569;SDS011;778;50.120;8.698;2023-06-14T13:22:08;3.00;;;2.80;;
1569;SDS011;778;50.120;8.698;2023-06-14T13:24:37;2.93;;;2.73;;
1569;SDS011;778;50.120;8.698;2023-06-14T13:27:06;6.13;;;2.90;;
1569;SDS011;778;50.120;8.698;2023-06-14T13:29:34;7.60;;;3.57;;
1569;SDS011;778;50.120;8.698;2023-06-14T13:32:05;2.77;;;2.57;;
1569;SDS011;778;50.120;8.698;2023-06-14T13:34:35;3.00;;;2.80;;
1569;SDS011;778;50.120;8.698;2023-06-14T13:37:03;3.00;;;2.70;;
1569;SDS011;778;50.120;8.698;2023-06-14T13:39:32;2.90;;;2.70;;
1569;SDS011;778;50.120;8.698;2023-06-14T13:42:04;3.90;;;2.90;;
1569;SDS011;778;50.120;8.698;2023-06-14T13:44:32;4.43;;;2.43;;
1569;SDS011;778;50.120;8.698;2023-06-14T13:47:00;3.80;;;3.00;;
1569;SDS011;778;50.120;8.698;2023-06-14T13:49:30;3.00;;;2.80;;
1569;SDS011;778;50.120;8.698;2023-06-14T13:52:01;4.53;;;2.70;;
1569;SDS011;778;50.120;8.698;2023-06-14T13:54:30;7.60;;;2.50;;
1569;SDS011;778;50.120;8.698;2023-06-14T13:56:58;3.63;;;3.00;;
1569;SDS011;778;50.120;8.698;2023-06-14T13:59:27;4.13;;;2.40;;
1569;SDS011;778;50.120;8.698;2023-06-14T14:01:55;5.97;;;4.80;;
1569;SDS011;778;50.120;8.698;2023-06-14T14:04:24;3.43;;;2.70;;
1569;SDS011;778;50.120;8.698;2023-06-14T14:06:54;3.03;;;2.73;;
1569;SDS011;778;50.120;8.698;2023-06-14T14:09:22;3.57;;;2.80;;
1569;SDS011;778;50.120;8.698;2023-06-14T14:11:51;5.50;;;2.83;;
1569;SDS011;778;50.120;8.698;2023-06-14T14:14:19;2.80;;;2.60;;
1569;SDS011;778;50.120;8.698;2023-06-14T14:16:48;2.90;;;2.70;;
1569;SDS011;778;50.120;8.698;2023-06-14T14:19:17;3.33;;;2.97;;
1569;SDS011;778;50.120;8.698;2023-06-14T14:21:46;3.27;;;2.97;;
1569;SDS011;778;50.120;8.698;2023-06-14T14:24:16;3.40;;;2.80;;
1569;SDS011;778;50.120;8.698;2023-06-14T14:26:44;2.67;;;2.47;;
1569;SDS011;778;50.120;8.698;2023-06-14T14:29:15;2.70;;;2.50;;
1569;SDS011;778;50.120;8.698;2023-06-14T14:31:43;3.00;;;2.80;;
1569;SDS011;778;50.120;8.698;2023-06-14T14:34:12;3.27;;;3.03;;
1569;SDS011;778;50.120;8.698;2023-06-14T14:36:40;3.07;;;2.87;;
1569;SDS011;778;50.120;8.698;2023-06-14T14:39:10;3.73;;;3.13;;
1569;SDS011;778;50.120;8.698;2023-06-14T14:41:40;4.00;;;3.37;;
1569;SDS011;778;50.120;8.698;2023-06-14T14:44:09;6.73;;;3.53;;
1569;SDS011;778;50.120;8.698;2023-06-14T14:46:37;3.20;;;2.90;;
1569;SDS011;778;50.120;8.698;2023-06-14T14:49:05;4.43;;;2.90;;
1569;SDS011;778;50.120;8.698;2023-06-14T14:51:34;3.57;;;2.60;;
1569;SDS011;778;50.120;8.698;2023-06-14T14:54:04;2.60;;;2.40;;
1569;SDS011;778;50.120;8.698;2023-06-14T14:56:33;3.50;;;3.20;;
1569;SDS011;778;50.120;8.698;2023-06-14T14:59:05;3.37;;;3.07;;
1569;SDS011;778;50.120;8.698;2023-06-14T15:01:34;2.80;;;2.60;;
1569;SDS011;778;50.120;8.698;2023-06-14T15:04:02;3.40;;;2.77;;
1569;SDS011;778;50.120;8.698;2023-06-14T15:06:31;3.10;;;2.80;;
1569;SDS011;778;50.120;8.698;2023-06-14T15:09:05;3.47;;;2.80;;
1569;SDS011;778;50.120;8.698;2023-06-14T15:11:34;2.67;;;2.47;;
1569;SDS011;778;50.120;8.698;2023-06-14T15:14:02;2.60;;;2.40;;
1569;SDS011;778;50.120;8.698;2023-06-14T15:16:32;2.53;;;2.33;;
1569;SDS011;778;50.120;8.698;2023-06-14T15:19:00;2.90;;;2.60;;
1569;SDS011;778;50.120;8.698;2023-06-14T15:21:29;4.00;;;2.73;;
1569;SDS011;778;50.120;8.698;2023-06-14T15:23:57;3.90;;;3.13;;
1569;SDS011;778;50.120;8.698;2023-06-14T15:26:26;2.40;;;2.20;;
1569;SDS011;778;50.120;8.698;2023-06-14T15:28:55;4.53;;;2.70;;
1569;SDS011;778;50.120;8.698;2023-06-14T15:31:24;4.87;;;2.50;;
1569;SDS011;778;50.120;8.698;2023-06-14T15:33:55;3.50;;;2.80;;
1569;SDS011;778;50.120;8.698;2023-06-14T15:36:24;2.90;;;2.70;;
1569;SDS011;778;50.120;8.698;2023-06-14T15:38:53;3.90;;;3.60;;
1569;SDS011;778;50.120;8.698;2023-06-14T15:41:21;6.67;;;3.03;;
1569;SDS011;778;50.120;8.698;2023-06-14T15:43:49;5.07;;;3.20;;
1569;SDS011;778;50.120;8.698;2023-06-14T15:46:18;8.27;;;3.50;;
1569;SDS011;778;50.120;8.698;2023-06-14T15:48:49;3.17;;;2.97;;
1569;SDS011;778;50.120;8.698;2023-06-14T15:51:19;3.03;;;2.73;;
1569;SDS011;778;50.120;8.698;2023-06-14T15:53:48;3.20;;;3.00;;